PWSweather.com
Personal Weather Stations
Station Observations
AC5JC
Greenleaf Peninsula, Waco, Waco, TX 76710

Greenleaf Peninsula, WacoWaco, TX 76710

Lat: 31.565, Lon: -97.198

Elevation: 570

Station Type: Ambient WS-1400IP

http://ac5jc.dyndns.org

High Low Average
Temperature 70.0°F21.1°C 52.3°F11.3°C 60.5°F15.8°C
Dew Point 47.3°F8.5°C 35.1°F1.7°C 40.9°F4.9°C
Winds 10.0 mph 16.1 kmh 1.5 mph 2.4 kmh 6.0 mph ESE9.7 kmh ESE
Wind Gusts 22.4 mph36.0 kmh 4.9 mph7.9 kmh 11.0 mph17.7 kmh
Humidity 69% 34% 50%
Pressure 29.68 in1005.1 mb 29.45 in997.3 mb -
Precipitation 0.00 in0.0 mm - -
Hour Temp Dew Point Humidity Winds Wind Gusts Pressure Precip Precip Rate Daily Precip Total
12:00 AM 58.1°F14.5°C 39.6°F4.2°C 50% 3.0 mph E4.8 kmh E 7.4 mph11.9 kmh 29.64 in1003.7 mb 0.00 in0.0 mm 0.00 in0.0 mm 0.00 in0.0 mm
12:05 AM 58.0°F14.4°C 39.6°F4.2°C 50% 2.4 mph ENE3.9 kmh ENE 4.9 mph7.9 kmh 29.64 in1003.7 mb 0.00 in0.0 mm 0.00 in0.0 mm 0.00 in0.0 mm
12:10 AM 57.9°F14.4°C 39.7°F4.3°C 51% 2.4 mph E3.9 kmh E 7.4 mph11.9 kmh 29.64 in1003.7 mb 0.00 in0.0 mm 0.00 in0.0 mm 0.00 in0.0 mm
12:15 AM 57.8°F14.3°C 40.3°F4.6°C 52% 1.8 mph ESE2.9 kmh ESE 4.9 mph7.9 kmh 29.63 in1003.4 mb 0.00 in0.0 mm 0.00 in0.0 mm 0.00 in0.0 mm
12:20 AM 57.7°F14.3°C 40.2°F4.6°C 52% 2.1 mph ENE3.4 kmh ENE 4.9 mph7.9 kmh 29.63 in1003.4 mb 0.00 in0.0 mm 0.00 in0.0 mm 0.00 in0.0 mm
12:25 AM 57.5°F14.2°C 40.0°F4.4°C 52% 3.0 mph E4.8 kmh E 4.9 mph7.9 kmh 29.63 in1003.4 mb 0.00 in0.0 mm 0.00 in0.0 mm 0.00 in0.0 mm
12:30 AM 57.3°F14.1°C 39.8°F4.3°C 52% 3.2 mph E5.1 kmh E 7.4 mph11.9 kmh 29.63 in1003.4 mb 0.00 in0.0 mm 0.00 in0.0 mm 0.00 in0.0 mm
12:35 AM 57.1°F13.9°C 39.7°F4.3°C 52% 3.6 mph ENE5.8 kmh ENE 7.4 mph11.9 kmh 29.63 in1003.4 mb 0.00 in0.0 mm 0.00 in0.0 mm 0.00 in0.0 mm
12:40 AM 56.9°F13.8°C 39.5°F4.2°C 52% 2.2 mph E3.5 kmh E 4.9 mph7.9 kmh 29.63 in1003.4 mb 0.00 in0.0 mm 0.00 in0.0 mm 0.00 in0.0 mm
12:45 AM 56.8°F13.8°C 39.4°F4.1°C 52% 2.7 mph ENE4.3 kmh ENE 4.9 mph7.9 kmh 29.63 in1003.4 mb 0.00 in0.0 mm 0.00 in0.0 mm 0.00 in0.0 mm
12:50 AM 56.8°F13.8°C 39.4°F4.1°C 52% 2.1 mph E3.4 kmh E 4.9 mph7.9 kmh 29.63 in1003.4 mb 0.00 in0.0 mm 0.00 in0.0 mm 0.00 in0.0 mm
12:55 AM 56.8°F13.8°C 39.4°F4.1°C 52% 2.2 mph E3.5 kmh E 4.9 mph7.9 kmh 29.64 in1003.7 mb 0.00 in0.0 mm 0.00 in0.0 mm 0.00 in0.0 mm
01:00 AM 56.8°F13.8°C 39.3°F4.1°C 52% 2.3 mph ENE3.7 kmh ENE 4.9 mph7.9 kmh 29.64 in1003.7 mb 0.00 in0.0 mm 0.00 in0.0 mm 0.00 in0.0 mm
01:05 AM 56.7°F13.7°C 39.3°F4.1°C 52% 1.7 mph E2.7 kmh E 4.9 mph7.9 kmh 29.63 in1003.4 mb 0.00 in0.0 mm 0.00 in0.0 mm 0.00 in0.0 mm
01:10 AM 56.7°F13.7°C 39.3°F4.1°C 52% 3.0 mph ENE4.8 kmh ENE 7.4 mph11.9 kmh 29.63 in1003.4 mb 0.00 in0.0 mm 0.00 in0.0 mm 0.00 in0.0 mm
01:15 AM 56.7°F13.7°C 39.3°F4.1°C 52% 4.3 mph E6.9 kmh E 7.4 mph11.9 kmh 29.64 in1003.7 mb 0.00 in0.0 mm 0.00 in0.0 mm 0.00 in0.0 mm
01:20 AM 56.7°F13.7°C 39.3°F4.1°C 52% 2.1 mph ENE3.4 kmh ENE 7.4 mph11.9 kmh 29.63 in1003.4 mb 0.00 in0.0 mm 0.00 in0.0 mm 0.00 in0.0 mm
01:25 AM 56.7°F13.7°C 39.3°F4.1°C 52% 2.1 mph ENE3.4 kmh ENE 4.9 mph7.9 kmh 29.64 in1003.7 mb 0.00 in0.0 mm 0.00 in0.0 mm 0.00 in0.0 mm
01:30 AM 56.7°F13.7°C 39.3°F4.1°C 52% 2.8 mph E4.5 kmh E 4.9 mph7.9 kmh 29.64 in1003.7 mb 0.00 in0.0 mm 0.00 in0.0 mm 0.00 in0.0 mm
01:35 AM 56.7°F13.7°C 39.3°F4.1°C 52% 3.9 mph E6.3 kmh E 7.4 mph11.9 kmh 29.64 in1003.7 mb 0.00 in0.0 mm 0.00 in0.0 mm 0.00 in0.0 mm
01:40 AM 56.7°F13.7°C 39.3°F4.1°C 52% 3.3 mph E5.3 kmh E 4.9 mph7.9 kmh 29.63 in1003.4 mb 0.00 in0.0 mm 0.00 in0.0 mm 0.00 in0.0 mm
01:45 AM 56.7°F13.7°C 39.3°F4.1°C 52% 4.8 mph NE7.7 kmh NE 9.8 mph15.8 kmh 29.63 in1003.4 mb 0.00 in0.0 mm 0.00 in0.0 mm 0.00 in0.0 mm
01:50 AM 56.7°F13.7°C 39.3°F4.1°C 52% 2.9 mph ENE4.7 kmh ENE 7.4 mph11.9 kmh 29.63 in1003.4 mb 0.00 in0.0 mm 0.00 in0.0 mm 0.00 in0.0 mm
01:55 AM 56.7°F13.7°C 38.5°F3.6°C 50% 3.7 mph E6.0 kmh E 7.4 mph11.9 kmh 29.62 in1003.0 mb 0.00 in0.0 mm 0.00 in0.0 mm 0.00 in0.0 mm
02:00 AM 56.7°F13.7°C 38.3°F3.5°C 50% 2.9 mph E4.7 kmh E 7.4 mph11.9 kmh 29.63 in1003.4 mb 0.00 in0.0 mm 0.00 in0.0 mm 0.00 in0.0 mm
02:05 AM 56.8°F13.8°C 37.8°F3.2°C 49% 4.9 mph E7.9 kmh E 7.4 mph11.9 kmh 29.62 in1003.0 mb 0.00 in0.0 mm 0.00 in0.0 mm 0.00 in0.0 mm
02:10 AM 56.8°F13.8°C 37.9°F3.3°C 49% 4.7 mph E7.6 kmh E 7.4 mph11.9 kmh 29.62 in1003.0 mb 0.00 in0.0 mm 0.00 in0.0 mm 0.00 in0.0 mm
02:15 AM 56.8°F13.8°C 38.4°F3.6°C 50% 4.1 mph ENE6.6 kmh ENE 9.8 mph15.8 kmh 29.62 in1003.0 mb 0.00 in0.0 mm 0.00 in0.0 mm 0.00 in0.0 mm
02:20 AM 56.8°F13.8°C 38.6°F3.7°C 50% 6.0 mph E9.7 kmh E 15.0 mph24.1 kmh 29.62 in1003.0 mb 0.00 in0.0 mm 0.00 in0.0 mm 0.00 in0.0 mm
02:25 AM 56.8°F13.8°C 39.2°F4.0°C 52% 3.0 mph E4.8 kmh E 7.4 mph11.9 kmh 29.62 in1003.0 mb 0.00 in0.0 mm 0.00 in0.0 mm 0.00 in0.0 mm
02:30 AM 56.8°F13.8°C 39.4°F4.1°C 52% 4.4 mph E7.1 kmh E 9.8 mph15.8 kmh 29.62 in1003.0 mb 0.00 in0.0 mm 0.00 in0.0 mm 0.00 in0.0 mm
02:35 AM 56.7°F13.7°C 39.6°F4.2°C 52% 3.9 mph E6.3 kmh E 9.8 mph15.8 kmh 29.62 in1003.0 mb 0.00 in0.0 mm 0.00 in0.0 mm 0.00 in0.0 mm
02:40 AM 56.7°F13.7°C 39.8°F4.3°C 53% 5.2 mph E8.4 kmh E 9.8 mph15.8 kmh 29.62 in1003.0 mb 0.00 in0.0 mm 0.00 in0.0 mm 0.00 in0.0 mm
02:45 AM 56.6°F13.7°C 39.6°F4.2°C 53% 5.7 mph E9.2 kmh E 12.3 mph19.8 kmh 29.61 in1002.7 mb 0.00 in0.0 mm 0.00 in0.0 mm 0.00 in0.0 mm
02:50 AM 56.4°F13.6°C 40.0°F4.4°C 54% 3.5 mph ESE5.6 kmh ESE 7.4 mph11.9 kmh 29.61 in1002.7 mb 0.00 in0.0 mm 0.00 in0.0 mm 0.00 in0.0 mm
02:55 AM 56.2°F13.4°C 40.0°F4.4°C 54% 4.1 mph E6.6 kmh E 7.4 mph11.9 kmh 29.60 in1002.4 mb 0.00 in0.0 mm 0.00 in0.0 mm 0.00 in0.0 mm
03:00 AM 55.9°F13.3°C 40.2°F4.6°C 56% 3.9 mph E6.3 kmh E 4.9 mph7.9 kmh 29.61 in1002.7 mb 0.00 in0.0 mm 0.00 in0.0 mm 0.00 in0.0 mm
03:05 AM 55.7°F13.2°C 40.3°F4.6°C 56% 4.4 mph ENE7.1 kmh ENE 9.8 mph15.8 kmh 29.60 in1002.4 mb 0.00 in0.0 mm 0.00 in0.0 mm 0.00 in0.0 mm
03:10 AM 55.5°F13.1°C 40.4°F4.7°C 57% 3.7 mph E6.0 kmh E 7.4 mph11.9 kmh 29.61 in1002.7 mb 0.00 in0.0 mm 0.00 in0.0 mm 0.00 in0.0 mm
03:15 AM 55.2°F12.9°C 40.2°F4.6°C 57% 3.4 mph E5.5 kmh E 7.4 mph11.9 kmh 29.61 in1002.7 mb 0.00 in0.0 mm 0.00 in0.0 mm 0.00 in0.0 mm
03:20 AM 55.0°F12.8°C 40.0°F4.4°C 57% 3.9 mph E6.3 kmh E 9.8 mph15.8 kmh 29.61 in1002.7 mb 0.00 in0.0 mm 0.00 in0.0 mm 0.00 in0.0 mm
03:25 AM 54.9°F12.7°C 40.0°F4.4°C 57% 4.1 mph E6.6 kmh E 7.4 mph11.9 kmh 29.61 in1002.7 mb 0.00 in0.0 mm 0.00 in0.0 mm 0.00 in0.0 mm
03:30 AM 54.9°F12.7°C 40.0°F4.4°C 57% 4.3 mph E6.9 kmh E 7.4 mph11.9 kmh 29.61 in1002.7 mb 0.00 in0.0 mm 0.00 in0.0 mm 0.00 in0.0 mm
03:35 AM 54.9°F12.7°C 40.0°F4.4°C 57% 4.5 mph ENE7.2 kmh ENE 9.8 mph15.8 kmh 29.61 in1002.7 mb 0.00 in0.0 mm 0.00 in0.0 mm 0.00 in0.0 mm
03:40 AM 54.8°F12.7°C 40.3°F4.6°C 58% 4.7 mph ENE7.6 kmh ENE 7.4 mph11.9 kmh 29.61 in1002.7 mb 0.00 in0.0 mm 0.00 in0.0 mm 0.00 in0.0 mm
03:45 AM 54.7°F12.6°C 40.2°F4.6°C 58% 3.4 mph E5.5 kmh E 7.4 mph11.9 kmh 29.61 in1002.7 mb 0.00 in0.0 mm 0.00 in0.0 mm 0.00 in0.0 mm
03:50 AM 54.7°F12.6°C 40.2°F4.6°C 58% 5.4 mph ENE8.7 kmh ENE 9.8 mph15.8 kmh 29.61 in1002.7 mb 0.00 in0.0 mm 0.00 in0.0 mm 0.00 in0.0 mm
03:55 AM 54.6°F12.6°C 40.3°F4.6°C 58% 3.6 mph E5.8 kmh E 4.9 mph7.9 kmh 29.61 in1002.7 mb 0.00 in0.0 mm 0.00 in0.0 mm 0.00 in0.0 mm
04:00 AM 54.5°F12.5°C 40.5°F4.7°C 59% 3.2 mph E5.1 kmh E 7.4 mph11.9 kmh 29.61 in1002.7 mb 0.00 in0.0 mm 0.00 in0.0 mm 0.00 in0.0 mm
04:05 AM 54.3°F12.4°C 40.2°F4.6°C 59% 2.1 mph E3.4 kmh E 4.9 mph7.9 kmh 29.60 in1002.4 mb 0.00 in0.0 mm 0.00 in0.0 mm 0.00 in0.0 mm
04:10 AM 54.1°F12.3°C 40.1°F4.5°C 59% 2.6 mph E4.2 kmh E 7.4 mph11.9 kmh 29.61 in1002.7 mb 0.00 in0.0 mm 0.00 in0.0 mm 0.00 in0.0 mm
04:15 AM 54.0°F12.2°C 40.0°F4.4°C 59% 1.5 mph ENE2.4 kmh ENE 7.4 mph11.9 kmh 29.61 in1002.7 mb 0.00 in0.0 mm 0.00 in0.0 mm 0.00 in0.0 mm
04:20 AM 54.0°F12.2°C 40.0°F4.4°C 59% 2.1 mph ESE3.4 kmh ESE 4.9 mph7.9 kmh 29.61 in1002.7 mb 0.00 in0.0 mm 0.00 in0.0 mm 0.00 in0.0 mm
04:25 AM 53.8°F12.1°C 40.1°F4.5°C 60% 3.4 mph E5.5 kmh E 4.9 mph7.9 kmh 29.61 in1002.7 mb 0.00 in0.0 mm 0.00 in0.0 mm 0.00 in0.0 mm
04:30 AM 53.8°F12.1°C 39.8°F4.3°C 59% 3.4 mph E5.5 kmh E 9.8 mph15.8 kmh 29.61 in1002.7 mb 0.00 in0.0 mm 0.00 in0.0 mm 0.00 in0.0 mm
04:35 AM 54.0°F12.2°C 39.6°F4.2°C 58% 3.5 mph E5.6 kmh E 7.4 mph11.9 kmh 29.61 in1002.7 mb 0.00 in0.0 mm 0.00 in0.0 mm 0.00 in0.0 mm
04:40 AM 54.1°F12.3°C 39.6°F4.2°C 58% 5.0 mph ESE8.0 kmh ESE 9.8 mph15.8 kmh 29.60 in1002.4 mb 0.00 in0.0 mm 0.00 in0.0 mm 0.00 in0.0 mm
04:45 AM 54.3°F12.4°C 39.3°F4.1°C 57% 6.1 mph E9.8 kmh E 15.0 mph24.1 kmh 29.60 in1002.4 mb 0.00 in0.0 mm 0.00 in0.0 mm 0.00 in0.0 mm
04:50 AM 54.6°F12.6°C 39.2°F4.0°C 56% 4.9 mph E7.9 kmh E 9.8 mph15.8 kmh 29.61 in1002.7 mb 0.00 in0.0 mm 0.00 in0.0 mm 0.00 in0.0 mm
04:55 AM 54.8°F12.7°C 39.6°F4.2°C 56% 5.0 mph E8.0 kmh E 9.8 mph15.8 kmh 29.61 in1002.7 mb 0.00 in0.0 mm 0.00 in0.0 mm 0.00 in0.0 mm
05:00 AM 54.9°F12.7°C 39.7°F4.3°C 56% 3.4 mph E5.5 kmh E 7.4 mph11.9 kmh 29.61 in1002.7 mb 0.00 in0.0 mm 0.00 in0.0 mm 0.00 in0.0 mm
05:05 AM 55.0°F12.8°C 39.7°F4.3°C 56% 4.1 mph E6.6 kmh E 15.0 mph24.1 kmh 29.61 in1002.7 mb 0.00 in0.0 mm 0.00 in0.0 mm 0.00 in0.0 mm
05:10 AM 55.2°F12.9°C 39.8°F4.3°C 56% 4.6 mph E7.4 kmh E 9.8 mph15.8 kmh 29.62 in1003.0 mb 0.00 in0.0 mm 0.00 in0.0 mm 0.00 in0.0 mm
05:15 AM 55.2°F12.9°C 39.8°F4.3°C 56% 4.3 mph ESE6.9 kmh ESE 12.3 mph19.8 kmh 29.61 in1002.7 mb 0.00 in0.0 mm 0.00 in0.0 mm 0.00 in0.0 mm
05:20 AM 55.2°F12.9°C 39.9°F4.4°C 56% 4.5 mph E7.2 kmh E 9.8 mph15.8 kmh 29.61 in1002.7 mb 0.00 in0.0 mm 0.00 in0.0 mm 0.00 in0.0 mm
05:25 AM 55.2°F12.9°C 40.1°F4.5°C 57% 6.2 mph E10.0 kmh E 12.3 mph19.8 kmh 29.61 in1002.7 mb 0.00 in0.0 mm 0.00 in0.0 mm 0.00 in0.0 mm
05:30 AM 55.2°F12.9°C 40.2°F4.6°C 57% 5.6 mph E9.0 kmh E 9.8 mph15.8 kmh 29.60 in1002.4 mb 0.00 in0.0 mm 0.00 in0.0 mm 0.00 in0.0 mm
05:35 AM 55.0°F12.8°C 40.3°F4.6°C 58% 4.2 mph E6.8 kmh E 7.4 mph11.9 kmh 29.61 in1002.7 mb 0.00 in0.0 mm 0.00 in0.0 mm 0.00 in0.0 mm
05:40 AM 55.0°F12.8°C 40.5°F4.7°C 58% 3.0 mph ESE4.8 kmh ESE 4.9 mph7.9 kmh 29.61 in1002.7 mb 0.00 in0.0 mm 0.00 in0.0 mm 0.00 in0.0 mm
05:45 AM 54.9°F12.7°C 40.4°F4.7°C 58% 5.3 mph E8.5 kmh E 15.0 mph24.1 kmh 29.61 in1002.7 mb 0.00 in0.0 mm 0.00 in0.0 mm 0.00 in0.0 mm
05:50 AM 54.9°F12.7°C 40.4°F4.7°C 58% 4.5 mph E7.2 kmh E 7.4 mph11.9 kmh 29.61 in1002.7 mb 0.00 in0.0 mm 0.00 in0.0 mm 0.00 in0.0 mm
05:55 AM 54.7°F12.6°C 40.7°F4.8°C 59% 5.8 mph ESE9.3 kmh ESE 12.3 mph19.8 kmh 29.61 in1002.7 mb 0.00 in0.0 mm 0.00 in0.0 mm 0.00 in0.0 mm
06:00 AM 54.7°F12.6°C 40.7°F4.8°C 59% 3.9 mph ENE6.3 kmh ENE 12.3 mph19.8 kmh 29.61 in1002.7 mb 0.00 in0.0 mm 0.00 in0.0 mm 0.00 in0.0 mm
06:05 AM 54.6°F12.6°C 40.6°F4.8°C 59% 4.2 mph E6.8 kmh E 9.8 mph15.8 kmh 29.61 in1002.7 mb 0.00 in0.0 mm 0.00 in0.0 mm 0.00 in0.0 mm
06:10 AM 54.5°F12.5°C 40.9°F4.9°C 60% 4.3 mph ESE6.9 kmh ESE 9.8 mph15.8 kmh 29.61 in1002.7 mb 0.00 in0.0 mm 0.00 in0.0 mm 0.00 in0.0 mm
06:15 AM 54.4°F12.4°C 40.8°F4.9°C 60% 5.5 mph E8.9 kmh E 12.3 mph19.8 kmh 29.62 in1003.0 mb 0.00 in0.0 mm 0.00 in0.0 mm 0.00 in0.0 mm
06:20 AM 54.3°F12.4°C 40.7°F4.8°C 60% 2.8 mph E4.5 kmh E 4.9 mph7.9 kmh 29.62 in1003.0 mb 0.00 in0.0 mm 0.00 in0.0 mm 0.00 in0.0 mm
06:25 AM 54.1°F12.3°C 40.7°F4.8°C 60% 4.9 mph ESE7.9 kmh ESE 12.3 mph19.8 kmh 29.62 in1003.0 mb 0.00 in0.0 mm 0.00 in0.0 mm 0.00 in0.0 mm
06:30 AM 54.0°F12.2°C 40.9°F4.9°C 61% 3.9 mph E6.3 kmh E 9.8 mph15.8 kmh 29.62 in1003.0 mb 0.00 in0.0 mm 0.00 in0.0 mm 0.00 in0.0 mm
06:35 AM 53.9°F12.2°C 40.7°F4.8°C 61% 3.4 mph ESE5.5 kmh ESE 9.8 mph15.8 kmh 29.62 in1003.0 mb 0.00 in0.0 mm 0.00 in0.0 mm 0.00 in0.0 mm
06:40 AM 53.7°F12.1°C 41.4°F5.2°C 63% 4.9 mph E7.9 kmh E 15.0 mph24.1 kmh 29.62 in1003.0 mb 0.00 in0.0 mm 0.00 in0.0 mm 0.00 in0.0 mm
06:45 AM 53.6°F12.0°C 41.3°F5.2°C 63% 4.3 mph E6.9 kmh E 15.0 mph24.1 kmh 29.62 in1003.0 mb 0.00 in0.0 mm 0.00 in0.0 mm 0.00 in0.0 mm
06:50 AM 53.4°F11.9°C 41.3°F5.2°C 63% 4.6 mph ENE7.4 kmh ENE 12.3 mph19.8 kmh 29.62 in1003.0 mb 0.00 in0.0 mm 0.00 in0.0 mm 0.00 in0.0 mm
06:55 AM 53.4°F11.9°C 41.5°F5.3°C 64% 5.1 mph SE8.2 kmh SE 9.8 mph15.8 kmh 29.63 in1003.4 mb 0.00 in0.0 mm 0.00 in0.0 mm 0.00 in0.0 mm
07:00 AM 53.2°F11.8°C 41.3°F5.2°C 64% 6.5 mph ESE10.5 kmh ESE 12.3 mph19.8 kmh 29.63 in1003.4 mb 0.00 in0.0 mm 0.00 in0.0 mm 0.00 in0.0 mm
07:05 AM 53.2°F11.8°C 41.6°F5.3°C 65% 5.6 mph E9.0 kmh E 12.3 mph19.8 kmh 29.63 in1003.4 mb 0.00 in0.0 mm 0.00 in0.0 mm 0.00 in0.0 mm
07:10 AM 53.0°F11.7°C 41.8°F5.4°C 66% 3.9 mph E6.3 kmh E 9.8 mph15.8 kmh 29.64 in1003.7 mb 0.00 in0.0 mm 0.00 in0.0 mm 0.00 in0.0 mm
07:15 AM 52.9°F11.6°C 41.8°F5.4°C 66% 4.2 mph E6.8 kmh E 12.3 mph19.8 kmh 29.64 in1003.7 mb 0.00 in0.0 mm 0.00 in0.0 mm 0.00 in0.0 mm
07:20 AM 52.7°F11.5°C 42.1°F5.6°C 67% 5.4 mph ESE8.7 kmh ESE 9.8 mph15.8 kmh 29.64 in1003.7 mb 0.00 in0.0 mm 0.00 in0.0 mm 0.00 in0.0 mm
07:25 AM 52.5°F11.4°C 41.6°F5.3°C 66% 8.0 mph E12.9 kmh E 15.0 mph24.1 kmh 29.63 in1003.4 mb 0.00 in0.0 mm 0.00 in0.0 mm 0.00 in0.0 mm
07:30 AM 52.4°F11.3°C 41.6°F5.3°C 67% 6.6 mph ESE10.6 kmh ESE 15.0 mph24.1 kmh 29.64 in1003.7 mb 0.00 in0.0 mm 0.00 in0.0 mm 0.00 in0.0 mm
07:35 AM 52.3°F11.3°C 41.7°F5.4°C 67% 4.2 mph E6.8 kmh E 7.4 mph11.9 kmh 29.64 in1003.7 mb 0.00 in0.0 mm 0.00 in0.0 mm 0.00 in0.0 mm
07:40 AM 52.3°F11.3°C 41.7°F5.4°C 67% 7.1 mph E11.4 kmh E 12.3 mph19.8 kmh 29.65 in1004.1 mb 0.00 in0.0 mm 0.00 in0.0 mm 0.00 in0.0 mm
07:45 AM 52.3°F11.3°C 41.7°F5.4°C 67% 8.0 mph ESE12.9 kmh ESE 15.0 mph24.1 kmh 29.65 in1004.1 mb 0.00 in0.0 mm 0.00 in0.0 mm 0.00 in0.0 mm
07:50 AM 52.3°F11.3°C 41.7°F5.4°C 67% 7.2 mph E11.6 kmh E 17.4 mph28.0 kmh 29.65 in1004.1 mb 0.00 in0.0 mm 0.00 in0.0 mm 0.00 in0.0 mm
07:55 AM 52.3°F11.3°C 41.7°F5.4°C 67% 4.4 mph E7.1 kmh E 9.8 mph15.8 kmh 29.66 in1004.4 mb 0.00 in0.0 mm 0.00 in0.0 mm 0.00 in0.0 mm
08:00 AM 52.3°F11.3°C 41.7°F5.4°C 67% 7.6 mph E12.2 kmh E 17.4 mph28.0 kmh 29.66 in1004.4 mb 0.00 in0.0 mm 0.00 in0.0 mm 0.00 in0.0 mm
08:05 AM 52.3°F11.3°C 41.7°F5.4°C 67% 4.8 mph E7.7 kmh E 9.8 mph15.8 kmh 29.66 in1004.4 mb 0.00 in0.0 mm 0.00 in0.0 mm 0.00 in0.0 mm
08:10 AM 52.3°F11.3°C 41.3°F5.2°C 66% 6.0 mph E9.7 kmh E 9.8 mph15.8 kmh 29.67 in1004.7 mb 0.00 in0.0 mm 0.00 in0.0 mm 0.00 in0.0 mm
08:15 AM 52.3°F11.3°C 40.9°F4.9°C 65% 6.8 mph ESE10.9 kmh ESE 15.0 mph24.1 kmh 29.67 in1004.7 mb 0.00 in0.0 mm 0.00 in0.0 mm 0.00 in0.0 mm
08:20 AM 52.6°F11.4°C 40.3°F4.6°C 63% 5.2 mph ENE8.4 kmh ENE 9.8 mph15.8 kmh 29.67 in1004.7 mb 0.00 in0.0 mm 0.00 in0.0 mm 0.00 in0.0 mm
08:25 AM 52.9°F11.6°C 39.9°F4.4°C 61% 5.1 mph ESE8.2 kmh ESE 9.8 mph15.8 kmh 29.67 in1004.7 mb 0.00 in0.0 mm 0.00 in0.0 mm 0.00 in0.0 mm
08:30 AM 53.2°F11.8°C 40.1°F4.5°C 61% 5.4 mph ENE8.7 kmh ENE 9.8 mph15.8 kmh 29.67 in1004.7 mb 0.00 in0.0 mm 0.00 in0.0 mm 0.00 in0.0 mm
08:35 AM 53.7°F12.1°C 40.0°F4.4°C 60% 3.8 mph ESE6.1 kmh ESE 9.8 mph15.8 kmh 29.67 in1004.7 mb 0.00 in0.0 mm 0.00 in0.0 mm 0.00 in0.0 mm
08:40 AM 54.0°F12.2°C 40.5°F4.7°C 60% 8.1 mph E13.0 kmh E 12.3 mph19.8 kmh 29.67 in1004.7 mb 0.00 in0.0 mm 0.00 in0.0 mm 0.00 in0.0 mm
08:45 AM 54.3°F12.4°C 40.7°F4.8°C 60% 5.4 mph E8.7 kmh E 9.8 mph15.8 kmh 29.67 in1004.7 mb 0.00 in0.0 mm 0.00 in0.0 mm 0.00 in0.0 mm
08:50 AM 54.3°F12.4°C 40.7°F4.8°C 60% 6.6 mph ESE10.6 kmh ESE 15.0 mph24.1 kmh 29.67 in1004.7 mb 0.00 in0.0 mm 0.00 in0.0 mm 0.00 in0.0 mm
08:55 AM 54.2°F12.3°C 40.6°F4.8°C 60% 7.6 mph ESE12.2 kmh ESE 12.3 mph19.8 kmh 29.67 in1004.7 mb 0.00 in0.0 mm 0.00 in0.0 mm 0.00 in0.0 mm
09:00 AM 54.1°F12.3°C 40.5°F4.7°C 60% 7.7 mph E12.4 kmh E 15.0 mph24.1 kmh 29.67 in1004.7 mb 0.00 in0.0 mm 0.00 in0.0 mm 0.00 in0.0 mm
09:05 AM 53.9°F12.2°C 40.3°F4.6°C 60% 5.9 mph ESE9.5 kmh ESE 12.3 mph19.8 kmh 29.67 in1004.7 mb 0.00 in0.0 mm 0.00 in0.0 mm 0.00 in0.0 mm
09:10 AM 53.8°F12.1°C 40.2°F4.6°C 60% 3.5 mph SE5.6 kmh SE 12.3 mph19.8 kmh 29.67 in1004.7 mb 0.00 in0.0 mm 0.00 in0.0 mm 0.00 in0.0 mm
09:15 AM 53.8°F12.1°C 40.1°F4.5°C 60% 5.7 mph E9.2 kmh E 9.8 mph15.8 kmh 29.67 in1004.7 mb 0.00 in0.0 mm 0.00 in0.0 mm 0.00 in0.0 mm
09:20 AM 53.8°F12.1°C 39.7°F4.3°C 59% 4.7 mph ESE7.6 kmh ESE 9.8 mph15.8 kmh 29.67 in1004.7 mb 0.00 in0.0 mm 0.00 in0.0 mm 0.00 in0.0 mm
09:25 AM 54.0°F12.2°C 39.4°F4.1°C 58% 8.4 mph SE13.5 kmh SE 15.0 mph24.1 kmh 29.67 in1004.7 mb 0.00 in0.0 mm 0.00 in0.0 mm 0.00 in0.0 mm
09:30 AM 54.1°F12.3°C 38.5°F3.6°C 56% 4.7 mph SE7.6 kmh SE 12.3 mph19.8 kmh 29.68 in1005.1 mb 0.00 in0.0 mm 0.00 in0.0 mm 0.00 in0.0 mm
09:35 AM 54.4°F12.4°C 38.3°F3.5°C 54% 7.1 mph ESE11.4 kmh ESE 15.0 mph24.1 kmh 29.68 in1005.1 mb 0.00 in0.0 mm 0.00 in0.0 mm 0.00 in0.0 mm
09:40 AM 54.6°F12.6°C 38.5°F3.6°C 54% 6.4 mph SE10.3 kmh SE 12.3 mph19.8 kmh 29.68 in1005.1 mb 0.00 in0.0 mm 0.00 in0.0 mm 0.00 in0.0 mm
09:45 AM 55.0°F12.8°C 38.2°F3.4°C 53% 7.0 mph SSE11.3 kmh SSE 15.0 mph24.1 kmh 29.68 in1005.1 mb 0.00 in0.0 mm 0.00 in0.0 mm 0.00 in0.0 mm
09:50 AM 55.3°F12.9°C 37.4°F3.0°C 51% 6.7 mph ESE10.8 kmh ESE 12.3 mph19.8 kmh 29.67 in1004.7 mb 0.00 in0.0 mm 0.00 in0.0 mm 0.00 in0.0 mm
09:55 AM 55.7°F13.2°C 36.7°F2.6°C 49% 6.6 mph ESE10.6 kmh ESE 12.3 mph19.8 kmh 29.68 in1005.1 mb 0.00 in0.0 mm 0.00 in0.0 mm 0.00 in0.0 mm
10:00 AM 56.1°F13.4°C 36.2°F2.3°C 47% 8.4 mph E13.5 kmh E 17.4 mph28.0 kmh 29.68 in1005.1 mb 0.00 in0.0 mm 0.00 in0.0 mm 0.00 in0.0 mm
10:05 AM 56.5°F13.6°C 35.9°F2.2°C 46% 5.4 mph E8.7 kmh E 12.3 mph19.8 kmh 29.68 in1005.1 mb 0.00 in0.0 mm 0.00 in0.0 mm 0.00 in0.0 mm
10:10 AM 56.9°F13.8°C 35.4°F1.9°C 44% 5.2 mph E8.4 kmh E 9.8 mph15.8 kmh 29.67 in1004.7 mb 0.00 in0.0 mm 0.00 in0.0 mm 0.00 in0.0 mm
10:15 AM 57.3°F14.1°C 35.6°F2.0°C 44% 5.1 mph SE8.2 kmh SE 15.0 mph24.1 kmh 29.67 in1004.7 mb 0.00 in0.0 mm 0.00 in0.0 mm 0.00 in0.0 mm
10:20 AM 57.5°F14.2°C 36.1°F2.3°C 45% 7.5 mph E12.1 kmh E 17.4 mph28.0 kmh 29.67 in1004.7 mb 0.00 in0.0 mm 0.00 in0.0 mm 0.00 in0.0 mm
10:25 AM 57.6°F14.2°C 36.0°F2.2°C 44% 6.3 mph SE10.1 kmh SE 12.3 mph19.8 kmh 29.67 in1004.7 mb 0.00 in0.0 mm 0.00 in0.0 mm 0.00 in0.0 mm
10:30 AM 57.7°F14.3°C 36.3°F2.4°C 45% 4.5 mph NE7.2 kmh NE 9.8 mph15.8 kmh 29.67 in1004.7 mb 0.00 in0.0 mm 0.00 in0.0 mm 0.00 in0.0 mm
10:35 AM 58.1°F14.5°C 35.2°F1.8°C 42% 10.0 mph SE16.1 kmh SE 22.4 mph36.0 kmh 29.67 in1004.7 mb 0.00 in0.0 mm 0.00 in0.0 mm 0.00 in0.0 mm
10:40 AM 58.4°F14.7°C 35.4°F1.9°C 42% 8.3 mph ESE13.4 kmh ESE 15.0 mph24.1 kmh 29.67 in1004.7 mb 0.00 in0.0 mm 0.00 in0.0 mm 0.00 in0.0 mm
10:45 AM 58.5°F14.7°C 35.8°F2.1°C 42% 8.0 mph E12.9 kmh E 17.4 mph28.0 kmh 29.67 in1004.7 mb 0.00 in0.0 mm 0.00 in0.0 mm 0.00 in0.0 mm
10:50 AM 58.7°F14.8°C 35.3°F1.8°C 42% 5.1 mph E8.2 kmh E 7.4 mph11.9 kmh 29.67 in1004.7 mb 0.00 in0.0 mm 0.00 in0.0 mm 0.00 in0.0 mm
10:55 AM 59.1°F15.1°C 35.2°F1.8°C 41% 9.8 mph SE15.8 kmh SE 19.9 mph32.0 kmh 29.67 in1004.7 mb 0.00 in0.0 mm 0.00 in0.0 mm 0.00 in0.0 mm
11:00 AM 59.6°F15.3°C 35.1°F1.7°C 40% 4.7 mph SE7.6 kmh SE 7.4 mph11.9 kmh 29.67 in1004.7 mb 0.00 in0.0 mm 0.00 in0.0 mm 0.00 in0.0 mm
11:05 AM 59.9°F15.5°C 35.5°F1.9°C 40% 8.7 mph SE14.0 kmh SE 15.0 mph24.1 kmh 29.67 in1004.7 mb 0.00 in0.0 mm 0.00 in0.0 mm 0.00 in0.0 mm
11:10 AM 60.0°F15.6°C 36.4°F2.4°C 41% 3.9 mph SE6.3 kmh SE 7.4 mph11.9 kmh 29.66 in1004.4 mb 0.00 in0.0 mm 0.00 in0.0 mm 0.00 in0.0 mm
11:15 AM 60.3°F15.7°C 36.7°F2.6°C 41% 3.4 mph SE5.5 kmh SE 9.8 mph15.8 kmh 29.66 in1004.4 mb 0.00 in0.0 mm 0.00 in0.0 mm 0.00 in0.0 mm
11:20 AM 60.6°F15.9°C 36.9°F2.7°C 41% 3.5 mph SE5.6 kmh SE 9.8 mph15.8 kmh 29.66 in1004.4 mb 0.00 in0.0 mm 0.00 in0.0 mm 0.00 in0.0 mm
11:25 AM 60.6°F15.9°C 36.4°F2.4°C 40% 5.6 mph SE9.0 kmh SE 15.0 mph24.1 kmh 29.67 in1004.7 mb 0.00 in0.0 mm 0.00 in0.0 mm 0.00 in0.0 mm
11:30 AM 60.8°F16.0°C 35.7°F2.1°C 39% 5.3 mph ESE8.5 kmh ESE 12.3 mph19.8 kmh 29.67 in1004.7 mb 0.00 in0.0 mm 0.00 in0.0 mm 0.00 in0.0 mm
11:35 AM 60.8°F16.0°C 36.7°F2.6°C 41% 6.7 mph ESE10.8 kmh ESE 12.3 mph19.8 kmh 29.67 in1004.7 mb 0.00 in0.0 mm 0.00 in0.0 mm 0.00 in0.0 mm
11:40 AM 60.6°F15.9°C 37.1°F2.8°C 42% 7.0 mph E11.3 kmh E 15.0 mph24.1 kmh 29.66 in1004.4 mb 0.00 in0.0 mm 0.00 in0.0 mm 0.00 in0.0 mm
11:45 AM 60.6°F15.9°C 37.3°F2.9°C 42% 8.6 mph SE13.8 kmh SE 15.0 mph24.1 kmh 29.67 in1004.7 mb 0.00 in0.0 mm 0.00 in0.0 mm 0.00 in0.0 mm
11:50 AM 60.4°F15.8°C 36.9°F2.7°C 42% 6.4 mph ESE10.3 kmh ESE 12.3 mph19.8 kmh 29.67 in1004.7 mb 0.00 in0.0 mm 0.00 in0.0 mm 0.00 in0.0 mm
11:55 AM 60.4°F15.8°C 37.0°F2.8°C 42% 8.2 mph SE13.2 kmh SE 12.3 mph19.8 kmh 29.66 in1004.4 mb 0.00 in0.0 mm 0.00 in0.0 mm 0.00 in0.0 mm
12:00 PM 60.0°F15.6°C 36.6°F2.6°C 42% 5.8 mph SE9.3 kmh SE 9.8 mph15.8 kmh 29.66 in1004.4 mb 0.00 in0.0 mm 0.00 in0.0 mm 0.00 in0.0 mm
12:05 PM 59.8°F15.4°C 36.2°F2.3°C 41% 7.8 mph ESE12.6 kmh ESE 12.3 mph19.8 kmh 29.66 in1004.4 mb 0.00 in0.0 mm 0.00 in0.0 mm 0.00 in0.0 mm
12:10 PM 60.1°F15.6°C 35.6°F2.0°C 40% 6.5 mph SE10.5 kmh SE 12.3 mph19.8 kmh 29.65 in1004.1 mb 0.00 in0.0 mm 0.00 in0.0 mm 0.00 in0.0 mm
12:15 PM 60.3°F15.7°C 35.9°F2.2°C 40% 7.5 mph ESE12.1 kmh ESE 12.3 mph19.8 kmh 29.65 in1004.1 mb 0.00 in0.0 mm 0.00 in0.0 mm 0.00 in0.0 mm
12:20 PM 60.3°F15.7°C 37.0°F2.8°C 42% 7.0 mph E11.3 kmh E 15.0 mph24.1 kmh 29.65 in1004.1 mb 0.00 in0.0 mm 0.00 in0.0 mm 0.00 in0.0 mm
12:25 PM 60.3°F15.7°C 36.8°F2.7°C 42% 6.5 mph ENE10.5 kmh ENE 9.8 mph15.8 kmh 29.64 in1003.7 mb 0.00 in0.0 mm 0.00 in0.0 mm 0.00 in0.0 mm
12:30 PM 60.6°F15.9°C 36.3°F2.4°C 40% 3.2 mph NE5.1 kmh NE 7.4 mph11.9 kmh 29.64 in1003.7 mb 0.00 in0.0 mm 0.00 in0.0 mm 0.00 in0.0 mm
12:35 PM 61.0°F16.1°C 35.9°F2.2°C 39% 6.6 mph SE10.6 kmh SE 15.0 mph24.1 kmh 29.64 in1003.7 mb 0.00 in0.0 mm 0.00 in0.0 mm 0.00 in0.0 mm
12:40 PM 61.4°F16.3°C 36.2°F2.3°C 39% 4.6 mph SE7.4 kmh SE 9.8 mph15.8 kmh 29.65 in1004.1 mb 0.00 in0.0 mm 0.00 in0.0 mm 0.00 in0.0 mm
12:45 PM 61.8°F16.6°C 36.3°F2.4°C 39% 6.3 mph SE10.1 kmh SE 12.3 mph19.8 kmh 29.64 in1003.7 mb 0.00 in0.0 mm 0.00 in0.0 mm 0.00 in0.0 mm
12:50 PM 62.3°F16.8°C 36.9°F2.7°C 39% 5.3 mph E8.5 kmh E 12.3 mph19.8 kmh 29.64 in1003.7 mb 0.00 in0.0 mm 0.00 in0.0 mm 0.00 in0.0 mm
12:55 PM 62.9°F17.2°C 37.7°F3.2°C 39% 3.9 mph SSE6.3 kmh SSE 9.8 mph15.8 kmh 29.64 in1003.7 mb 0.00 in0.0 mm 0.00 in0.0 mm 0.00 in0.0 mm
01:00 PM 63.3°F17.4°C 37.9°F3.3°C 39% 6.1 mph E9.8 kmh E 12.3 mph19.8 kmh 29.63 in1003.4 mb 0.00 in0.0 mm 0.00 in0.0 mm 0.00 in0.0 mm
01:05 PM 63.6°F17.6°C 38.3°F3.5°C 39% 5.7 mph ESE9.2 kmh ESE 15.0 mph24.1 kmh 29.62 in1003.0 mb 0.00 in0.0 mm 0.00 in0.0 mm 0.00 in0.0 mm
01:10 PM 63.8°F17.7°C 38.5°F3.6°C 39% 4.9 mph E7.9 kmh E 15.0 mph24.1 kmh 29.62 in1003.0 mb 0.00 in0.0 mm 0.00 in0.0 mm 0.00 in0.0 mm
01:15 PM 64.1°F17.8°C 38.6°F3.7°C 39% 4.7 mph E7.6 kmh E 9.8 mph15.8 kmh 29.61 in1002.7 mb 0.00 in0.0 mm 0.00 in0.0 mm 0.00 in0.0 mm
01:20 PM 64.4°F18.0°C 39.1°F3.9°C 39% 7.2 mph ENE11.6 kmh ENE 15.0 mph24.1 kmh 29.59 in1002.0 mb 0.00 in0.0 mm 0.00 in0.0 mm 0.00 in0.0 mm
01:25 PM 64.7°F18.2°C 38.9°F3.8°C 39% 7.5 mph E12.1 kmh E 15.0 mph24.1 kmh 29.59 in1002.0 mb 0.00 in0.0 mm 0.00 in0.0 mm 0.00 in0.0 mm
01:30 PM 64.9°F18.3°C 38.8°F3.8°C 38% 4.2 mph E6.8 kmh E 9.8 mph15.8 kmh 29.59 in1002.0 mb 0.00 in0.0 mm 0.00 in0.0 mm 0.00 in0.0 mm
01:35 PM 65.5°F18.6°C 38.4°F3.6°C 37% 5.6 mph E9.0 kmh E 12.3 mph19.8 kmh 29.58 in1001.7 mb 0.00 in0.0 mm 0.00 in0.0 mm 0.00 in0.0 mm
01:40 PM 65.7°F18.7°C 39.0°F3.9°C 38% 4.6 mph ENE7.4 kmh ENE 12.3 mph19.8 kmh 29.58 in1001.7 mb 0.00 in0.0 mm 0.00 in0.0 mm 0.00 in0.0 mm
01:45 PM 65.8°F18.8°C 39.4°F4.1°C 38% 7.0 mph E11.3 kmh E 12.3 mph19.8 kmh 29.58 in1001.7 mb 0.00 in0.0 mm 0.00 in0.0 mm 0.00 in0.0 mm
01:50 PM 66.0°F18.9°C 39.2°F4.0°C 37% 6.5 mph SE10.5 kmh SE 12.3 mph19.8 kmh 29.57 in1001.4 mb 0.00 in0.0 mm 0.00 in0.0 mm 0.00 in0.0 mm
01:55 PM 66.1°F18.9°C 38.7°F3.7°C 36% 5.0 mph SE8.0 kmh SE 12.3 mph19.8 kmh 29.58 in1001.7 mb 0.00 in0.0 mm 0.00 in0.0 mm 0.00 in0.0 mm
02:00 PM 66.3°F19.1°C 38.7°F3.7°C 36% 5.7 mph E9.2 kmh E 9.8 mph15.8 kmh 29.58 in1001.7 mb 0.00 in0.0 mm 0.00 in0.0 mm 0.00 in0.0 mm
02:05 PM 66.4°F19.1°C 38.2°F3.4°C 35% 5.5 mph E8.9 kmh E 9.8 mph15.8 kmh 29.57 in1001.4 mb 0.00 in0.0 mm 0.00 in0.0 mm 0.00 in0.0 mm
02:10 PM 66.7°F19.3°C 38.9°F3.8°C 36% 4.7 mph ENE7.6 kmh ENE 9.8 mph15.8 kmh 29.57 in1001.4 mb 0.00 in0.0 mm 0.00 in0.0 mm 0.00 in0.0 mm
02:15 PM 67.0°F19.4°C 38.9°F3.8°C 36% 5.6 mph E9.0 kmh E 17.4 mph28.0 kmh 29.57 in1001.4 mb 0.00 in0.0 mm 0.00 in0.0 mm 0.00 in0.0 mm
02:20 PM 67.1°F19.5°C 39.4°F4.1°C 36% 5.9 mph SE9.5 kmh SE 9.8 mph15.8 kmh 29.56 in1001.0 mb 0.00 in0.0 mm 0.00 in0.0 mm 0.00 in0.0 mm
02:25 PM 67.2°F19.6°C 39.5°F4.2°C 36% 6.5 mph E10.5 kmh E 9.8 mph15.8 kmh 29.56 in1001.0 mb 0.00 in0.0 mm 0.00 in0.0 mm 0.00 in0.0 mm
02:30 PM 67.5°F19.7°C 39.5°F4.2°C 36% 7.3 mph E11.7 kmh E 15.0 mph24.1 kmh 29.56 in1001.0 mb 0.00 in0.0 mm 0.00 in0.0 mm 0.00 in0.0 mm
02:35 PM 67.4°F19.7°C 39.4°F4.1°C 36% 4.8 mph ENE7.7 kmh ENE 9.8 mph15.8 kmh 29.56 in1001.0 mb 0.00 in0.0 mm 0.00 in0.0 mm 0.00 in0.0 mm
02:40 PM 67.5°F19.7°C 39.5°F4.2°C 36% 5.6 mph E9.0 kmh E 9.8 mph15.8 kmh 29.55 in1000.7 mb 0.00 in0.0 mm 0.00 in0.0 mm 0.00 in0.0 mm
02:45 PM 67.5°F19.7°C 39.2°F4.0°C 36% 5.4 mph E8.7 kmh E 12.3 mph19.8 kmh 29.56 in1001.0 mb 0.00 in0.0 mm 0.00 in0.0 mm 0.00 in0.0 mm
02:50 PM 67.6°F19.8°C 38.9°F3.8°C 35% 4.8 mph E7.7 kmh E 17.4 mph28.0 kmh 29.55 in1000.7 mb 0.00 in0.0 mm 0.00 in0.0 mm 0.00 in0.0 mm
02:55 PM 67.9°F19.9°C 39.1°F3.9°C 35% 6.2 mph ENE10.0 kmh ENE 15.0 mph24.1 kmh 29.55 in1000.7 mb 0.00 in0.0 mm 0.00 in0.0 mm 0.00 in0.0 mm
03:00 PM 68.1°F20.1°C 38.9°F3.8°C 34% 6.3 mph E10.1 kmh E 12.3 mph19.8 kmh 29.55 in1000.7 mb 0.00 in0.0 mm 0.00 in0.0 mm 0.00 in0.0 mm
03:05 PM 68.2°F20.1°C 39.7°F4.3°C 35% 5.2 mph E8.4 kmh E 9.8 mph15.8 kmh 29.54 in1000.3 mb 0.00 in0.0 mm 0.00 in0.0 mm 0.00 in0.0 mm
03:10 PM 68.3°F20.2°C 40.6°F4.8°C 36% 8.2 mph SSE13.2 kmh SSE 19.9 mph32.0 kmh 29.54 in1000.3 mb 0.00 in0.0 mm 0.00 in0.0 mm 0.00 in0.0 mm
03:15 PM 68.3°F20.2°C 40.1°F4.5°C 36% 5.5 mph SE8.9 kmh SE 17.4 mph28.0 kmh 29.54 in1000.3 mb 0.00 in0.0 mm 0.00 in0.0 mm 0.00 in0.0 mm
03:20 PM 68.4°F20.2°C 39.9°F4.4°C 35% 6.1 mph ESE9.8 kmh ESE 15.0 mph24.1 kmh 29.54 in1000.3 mb 0.00 in0.0 mm 0.00 in0.0 mm 0.00 in0.0 mm
03:25 PM 68.4°F20.2°C 39.9°F4.4°C 35% 4.9 mph E7.9 kmh E 15.0 mph24.1 kmh 29.53 in1000.0 mb 0.00 in0.0 mm 0.00 in0.0 mm 0.00 in0.0 mm
03:30 PM 68.3°F20.2°C 39.7°F4.3°C 35% 5.4 mph ESE8.7 kmh ESE 12.3 mph19.8 kmh 29.53 in1000.0 mb 0.00 in0.0 mm 0.00 in0.0 mm 0.00 in0.0 mm
03:35 PM 68.4°F20.2°C 39.7°F4.3°C 35% 4.6 mph E7.4 kmh E 9.8 mph15.8 kmh 29.53 in1000.0 mb 0.00 in0.0 mm 0.00 in0.0 mm 0.00 in0.0 mm
03:40 PM 68.5°F20.3°C 39.8°F4.3°C 35% 4.7 mph SE7.6 kmh SE 9.8 mph15.8 kmh 29.53 in1000.0 mb 0.00 in0.0 mm 0.00 in0.0 mm 0.00 in0.0 mm
03:45 PM 68.7°F20.4°C 39.9°F4.4°C 35% 5.3 mph NE8.5 kmh NE 7.4 mph11.9 kmh 29.53 in1000.0 mb 0.00 in0.0 mm 0.00 in0.0 mm 0.00 in0.0 mm
03:50 PM 68.7°F20.4°C 40.4°F4.7°C 36% 5.0 mph E8.0 kmh E 9.8 mph15.8 kmh 29.52 in999.7 mb 0.00 in0.0 mm 0.00 in0.0 mm 0.00 in0.0 mm
03:55 PM 68.9°F20.5°C 39.9°F4.4°C 35% 6.8 mph SE10.9 kmh SE 12.3 mph19.8 kmh 29.52 in999.7 mb 0.00 in0.0 mm 0.00 in0.0 mm 0.00 in0.0 mm
04:00 PM 69.0°F20.6°C 40.0°F4.4°C 35% 6.4 mph SE10.3 kmh SE 12.3 mph19.8 kmh 29.52 in999.7 mb 0.00 in0.0 mm 0.00 in0.0 mm 0.00 in0.0 mm
04:05 PM 69.2°F20.7°C 39.8°F4.3°C 34% 4.6 mph ESE7.4 kmh ESE 12.3 mph19.8 kmh 29.51 in999.3 mb 0.00 in0.0 mm 0.00 in0.0 mm 0.00 in0.0 mm
04:10 PM 69.2°F20.7°C 40.5°F4.7°C 35% 5.5 mph E8.9 kmh E 12.3 mph19.8 kmh 29.51 in999.3 mb 0.00 in0.0 mm 0.00 in0.0 mm 0.00 in0.0 mm
04:15 PM 69.3°F20.7°C 39.8°F4.3°C 34% 6.8 mph SE10.9 kmh SE 12.3 mph19.8 kmh 29.50 in999.0 mb 0.00 in0.0 mm 0.00 in0.0 mm 0.00 in0.0 mm
04:20 PM 69.3°F20.7°C 40.0°F4.4°C 34% 8.7 mph S14.0 kmh S 17.4 mph28.0 kmh 29.50 in999.0 mb 0.00 in0.0 mm 0.00 in0.0 mm 0.00 in0.0 mm
04:25 PM 69.3°F20.7°C 39.6°F4.2°C 34% 3.6 mph SSE5.8 kmh SSE 4.9 mph7.9 kmh 29.50 in999.0 mb 0.00 in0.0 mm 0.00 in0.0 mm 0.00 in0.0 mm
04:30 PM 69.4°F20.8°C 39.4°F4.1°C 34% 9.4 mph SSE15.1 kmh SSE 12.3 mph19.8 kmh 29.49 in998.6 mb 0.00 in0.0 mm 0.00 in0.0 mm 0.00 in0.0 mm
04:35 PM 69.4°F20.8°C 40.3°F4.6°C 35% 4.7 mph SE7.6 kmh SE 12.3 mph19.8 kmh 29.49 in998.6 mb 0.00 in0.0 mm 0.00 in0.0 mm 0.00 in0.0 mm
04:40 PM 69.4°F20.8°C 40.8°F4.9°C 35% 5.2 mph SSE8.4 kmh SSE 9.8 mph15.8 kmh 29.49 in998.6 mb 0.00 in0.0 mm 0.00 in0.0 mm 0.00 in0.0 mm
04:45 PM 69.5°F20.8°C 40.2°F4.6°C 34% 7.7 mph SE12.4 kmh SE 15.0 mph24.1 kmh 29.49 in998.6 mb 0.00 in0.0 mm 0.00 in0.0 mm 0.00 in0.0 mm
04:50 PM 69.6°F20.9°C 39.6°F4.2°C 34% 7.8 mph SE12.6 kmh SE 17.4 mph28.0 kmh 29.49 in998.6 mb 0.00 in0.0 mm 0.00 in0.0 mm 0.00 in0.0 mm
04:55 PM 69.5°F20.8°C 39.9°F4.4°C 34% 4.1 mph ESE6.6 kmh ESE 9.8 mph15.8 kmh 29.49 in998.6 mb 0.00 in0.0 mm 0.00 in0.0 mm 0.00 in0.0 mm
05:00 PM 69.4°F20.8°C 39.9°F4.4°C 34% 7.3 mph SE11.7 kmh SE 12.3 mph19.8 kmh 29.49 in998.6 mb 0.00 in0.0 mm 0.00 in0.0 mm 0.00 in0.0 mm
05:05 PM 69.6°F20.9°C 40.5°F4.7°C 35% 8.3 mph SE13.4 kmh SE 15.0 mph24.1 kmh 29.48 in998.3 mb 0.00 in0.0 mm 0.00 in0.0 mm 0.00 in0.0 mm
05:10 PM 69.6°F20.9°C 41.0°F5.0°C 35% 6.5 mph SE10.5 kmh SE 15.0 mph24.1 kmh 29.48 in998.3 mb 0.00 in0.0 mm 0.00 in0.0 mm 0.00 in0.0 mm
05:15 PM 69.6°F20.9°C 40.7°F4.8°C 35% 5.5 mph SE8.9 kmh SE 12.3 mph19.8 kmh 29.48 in998.3 mb 0.00 in0.0 mm 0.00 in0.0 mm 0.00 in0.0 mm
05:20 PM 69.7°F20.9°C 40.8°F4.9°C 35% 7.6 mph SE12.2 kmh SE 12.3 mph19.8 kmh 29.48 in998.3 mb 0.00 in0.0 mm 0.00 in0.0 mm 0.00 in0.0 mm
05:25 PM 69.8°F21.0°C 41.5°F5.3°C 36% 5.9 mph SSE9.5 kmh SSE 12.3 mph19.8 kmh 29.48 in998.3 mb 0.00 in0.0 mm 0.00 in0.0 mm 0.00 in0.0 mm
05:30 PM 69.9°F21.1°C 41.8°F5.4°C 36% 7.4 mph SE11.9 kmh SE 15.0 mph24.1 kmh 29.48 in998.3 mb 0.00 in0.0 mm 0.00 in0.0 mm 0.00 in0.0 mm
05:35 PM 70.0°F21.1°C 42.8°F6.0°C 37% 5.8 mph SE9.3 kmh SE 15.0 mph24.1 kmh 29.48 in998.3 mb 0.00 in0.0 mm 0.00 in0.0 mm 0.00 in0.0 mm
05:40 PM 70.0°F21.1°C 43.0°F6.1°C 38% 6.8 mph ESE10.9 kmh ESE 17.4 mph28.0 kmh 29.48 in998.3 mb 0.00 in0.0 mm 0.00 in0.0 mm 0.00 in0.0 mm
05:45 PM 70.0°F21.1°C 42.6°F5.9°C 37% 6.0 mph E9.7 kmh E 12.3 mph19.8 kmh 29.48 in998.3 mb 0.00 in0.0 mm 0.00 in0.0 mm 0.00 in0.0 mm
05:50 PM 69.8°F21.0°C 42.3°F5.7°C 37% 5.8 mph SSE9.3 kmh SSE 12.3 mph19.8 kmh 29.48 in998.3 mb 0.00 in0.0 mm 0.00 in0.0 mm 0.00 in0.0 mm
05:55 PM 69.8°F21.0°C 42.1°F5.6°C 37% 5.9 mph ESE9.5 kmh ESE 9.8 mph15.8 kmh 29.48 in998.3 mb 0.00 in0.0 mm 0.00 in0.0 mm 0.00 in0.0 mm
06:00 PM 69.8°F21.0°C 42.3°F5.7°C 37% 8.7 mph SSE14.0 kmh SSE 15.0 mph24.1 kmh 29.48 in998.3 mb 0.00 in0.0 mm 0.00 in0.0 mm 0.00 in0.0 mm
06:05 PM 69.7°F20.9°C 43.1°F6.2°C 38% 6.7 mph SSE10.8 kmh SSE 12.3 mph19.8 kmh 29.47 in998.0 mb 0.00 in0.0 mm 0.00 in0.0 mm 0.00 in0.0 mm
06:10 PM 69.7°F20.9°C 42.7°F5.9°C 38% 5.3 mph SE8.5 kmh SE 9.8 mph15.8 kmh 29.47 in998.0 mb 0.00 in0.0 mm 0.00 in0.0 mm 0.00 in0.0 mm
06:15 PM 69.7°F20.9°C 43.0°F6.1°C 38% 6.7 mph SE10.8 kmh SE 15.0 mph24.1 kmh 29.48 in998.3 mb 0.00 in0.0 mm 0.00 in0.0 mm 0.00 in0.0 mm
06:20 PM 69.6°F20.9°C 43.2°F6.2°C 38% 7.1 mph SSE11.4 kmh SSE 17.4 mph28.0 kmh 29.47 in998.0 mb 0.00 in0.0 mm 0.00 in0.0 mm 0.00 in0.0 mm
06:25 PM 69.4°F20.8°C 43.8°F6.6°C 40% 9.9 mph SE15.9 kmh SE 15.0 mph24.1 kmh 29.47 in998.0 mb 0.00 in0.0 mm 0.00 in0.0 mm 0.00 in0.0 mm
06:30 PM 69.3°F20.7°C 43.9°F6.6°C 40% 7.0 mph SSE11.3 kmh SSE 15.0 mph24.1 kmh 29.47 in998.0 mb 0.00 in0.0 mm 0.00 in0.0 mm 0.00 in0.0 mm
06:35 PM 69.3°F20.7°C 43.9°F6.6°C 40% 5.0 mph S8.0 kmh S 9.8 mph15.8 kmh 29.47 in998.0 mb 0.00 in0.0 mm 0.00 in0.0 mm 0.00 in0.0 mm
06:40 PM 69.1°F20.6°C 43.8°F6.6°C 40% 6.7 mph SE10.8 kmh SE 12.3 mph19.8 kmh 29.47 in998.0 mb 0.00 in0.0 mm 0.00 in0.0 mm 0.00 in0.0 mm
06:45 PM 68.9°F20.5°C 43.7°F6.5°C 40% 6.7 mph SSE10.8 kmh SSE 9.8 mph15.8 kmh 29.47 in998.0 mb 0.00 in0.0 mm 0.00 in0.0 mm 0.00 in0.0 mm
06:50 PM 68.9°F20.5°C 44.0°F6.7°C 41% 7.5 mph SSE12.1 kmh SSE 15.0 mph24.1 kmh 29.47 in998.0 mb 0.00 in0.0 mm 0.00 in0.0 mm 0.00 in0.0 mm
06:55 PM 68.7°F20.4°C 44.1°F6.7°C 41% 6.1 mph SE9.8 kmh SE 9.8 mph15.8 kmh 29.47 in998.0 mb 0.00 in0.0 mm 0.00 in0.0 mm 0.00 in0.0 mm
07:00 PM 68.7°F20.4°C 44.3°F6.8°C 41% 6.3 mph SE10.1 kmh SE 9.8 mph15.8 kmh 29.47 in998.0 mb 0.00 in0.0 mm 0.00 in0.0 mm 0.00 in0.0 mm
07:05 PM 68.5°F20.3°C 44.5°F6.9°C 42% 5.2 mph SE8.4 kmh SE 9.8 mph15.8 kmh 29.47 in998.0 mb 0.00 in0.0 mm 0.00 in0.0 mm 0.00 in0.0 mm
07:10 PM 68.2°F20.1°C 44.3°F6.8°C 42% 6.5 mph SE10.5 kmh SE 17.4 mph28.0 kmh 29.48 in998.3 mb 0.00 in0.0 mm 0.00 in0.0 mm 0.00 in0.0 mm
07:15 PM 67.8°F19.9°C 44.5°F6.9°C 43% 3.4 mph SE5.5 kmh SE 9.8 mph15.8 kmh 29.48 in998.3 mb 0.00 in0.0 mm 0.00 in0.0 mm 0.00 in0.0 mm
07:20 PM 67.5°F19.7°C 44.2°F6.8°C 43% 4.5 mph SE7.2 kmh SE 9.8 mph15.8 kmh 29.48 in998.3 mb 0.00 in0.0 mm 0.00 in0.0 mm 0.00 in0.0 mm
07:25 PM 67.0°F19.4°C 43.8°F6.6°C 43% 6.9 mph SSE11.1 kmh SSE 9.8 mph15.8 kmh 29.48 in998.3 mb 0.00 in0.0 mm 0.00 in0.0 mm 0.00 in0.0 mm
07:30 PM 66.7°F19.3°C 43.5°F6.4°C 43% 4.0 mph SE6.4 kmh SE 7.4 mph11.9 kmh 29.47 in998.0 mb 0.00 in0.0 mm 0.00 in0.0 mm 0.00 in0.0 mm
07:35 PM 66.4°F19.1°C 43.9°F6.6°C 44% 7.4 mph SSE11.9 kmh SSE 15.0 mph24.1 kmh 29.47 in998.0 mb 0.00 in0.0 mm 0.00 in0.0 mm 0.00 in0.0 mm
07:40 PM 66.2°F19.0°C 43.8°F6.6°C 44% 5.1 mph SSE8.2 kmh SSE 12.3 mph19.8 kmh 29.47 in998.0 mb 0.00 in0.0 mm 0.00 in0.0 mm 0.00 in0.0 mm
07:45 PM 66.1°F18.9°C 44.1°F6.7°C 45% 5.0 mph SE8.0 kmh SE 9.8 mph15.8 kmh 29.47 in998.0 mb 0.00 in0.0 mm 0.00 in0.0 mm 0.00 in0.0 mm
07:50 PM 65.9°F18.8°C 44.0°F6.7°C 45% 5.8 mph SSE9.3 kmh SSE 15.0 mph24.1 kmh 29.47 in998.0 mb 0.00 in0.0 mm 0.00 in0.0 mm 0.00 in0.0 mm
07:55 PM 65.8°F18.8°C 43.8°F6.6°C 45% 5.2 mph SE8.4 kmh SE 12.3 mph19.8 kmh 29.47 in998.0 mb 0.00 in0.0 mm 0.00 in0.0 mm 0.00 in0.0 mm
08:00 PM 65.7°F18.7°C 43.7°F6.5°C 45% 4.4 mph ESE7.1 kmh ESE 7.4 mph11.9 kmh 29.46 in997.6 mb 0.00 in0.0 mm 0.00 in0.0 mm 0.00 in0.0 mm
08:05 PM 65.5°F18.6°C 43.6°F6.4°C 45% 6.4 mph SE10.3 kmh SE 12.3 mph19.8 kmh 29.45 in997.3 mb 0.00 in0.0 mm 0.00 in0.0 mm 0.00 in0.0 mm
08:10 PM 65.4°F18.6°C 43.6°F6.4°C 45% 4.9 mph SE7.9 kmh SE 9.8 mph15.8 kmh 29.46 in997.6 mb 0.00 in0.0 mm 0.00 in0.0 mm 0.00 in0.0 mm
08:15 PM 65.3°F18.5°C 44.0°F6.7°C 46% 6.0 mph SE9.7 kmh SE 12.3 mph19.8 kmh 29.45 in997.3 mb 0.00 in0.0 mm 0.00 in0.0 mm 0.00 in0.0 mm
08:20 PM 65.1°F18.4°C 43.8°F6.6°C 46% 6.5 mph SSE10.5 kmh SSE 12.3 mph19.8 kmh 29.45 in997.3 mb 0.00 in0.0 mm 0.00 in0.0 mm 0.00 in0.0 mm
08:25 PM 64.9°F18.3°C 44.0°F6.7°C 47% 5.5 mph SE8.9 kmh SE 9.8 mph15.8 kmh 29.46 in997.6 mb 0.00 in0.0 mm 0.00 in0.0 mm 0.00 in0.0 mm
08:30 PM 64.7°F18.2°C 44.6°F7.0°C 48% 4.0 mph SE6.4 kmh SE 7.4 mph11.9 kmh 29.45 in997.3 mb 0.00 in0.0 mm 0.00 in0.0 mm 0.00 in0.0 mm
08:35 PM 64.5°F18.1°C 44.4°F6.9°C 48% 4.8 mph SE7.7 kmh SE 12.3 mph19.8 kmh 29.46 in997.6 mb 0.00 in0.0 mm 0.00 in0.0 mm 0.00 in0.0 mm
08:40 PM 64.3°F17.9°C 44.2°F6.8°C 48% 4.4 mph SE7.1 kmh SE 15.0 mph24.1 kmh 29.47 in998.0 mb 0.00 in0.0 mm 0.00 in0.0 mm 0.00 in0.0 mm
08:45 PM 64.1°F17.8°C 44.0°F6.7°C 48% 4.1 mph SE6.6 kmh SE 7.4 mph11.9 kmh 29.46 in997.6 mb 0.00 in0.0 mm 0.00 in0.0 mm 0.00 in0.0 mm
08:50 PM 63.9°F17.7°C 44.3°F6.8°C 49% 5.2 mph ESE8.4 kmh ESE 9.8 mph15.8 kmh 29.46 in997.6 mb 0.00 in0.0 mm 0.00 in0.0 mm 0.00 in0.0 mm
08:55 PM 63.7°F17.6°C 44.2°F6.8°C 49% 6.2 mph SE10.0 kmh SE 12.3 mph19.8 kmh 29.46 in997.6 mb 0.00 in0.0 mm 0.00 in0.0 mm 0.00 in0.0 mm
09:00 PM 63.6°F17.6°C 44.1°F6.7°C 49% 6.0 mph SE9.7 kmh SE 12.3 mph19.8 kmh 29.46 in997.6 mb 0.00 in0.0 mm 0.00 in0.0 mm 0.00 in0.0 mm
09:05 PM 63.3°F17.4°C 43.8°F6.6°C 49% 5.8 mph SE9.3 kmh SE 12.3 mph19.8 kmh 29.46 in997.6 mb 0.00 in0.0 mm 0.00 in0.0 mm 0.00 in0.0 mm
09:10 PM 63.1°F17.3°C 43.9°F6.6°C 50% 5.5 mph SE8.9 kmh SE 12.3 mph19.8 kmh 29.46 in997.6 mb 0.00 in0.0 mm 0.00 in0.0 mm 0.00 in0.0 mm
09:15 PM 63.0°F17.2°C 44.1°F6.7°C 50% 5.7 mph SE9.2 kmh SE 9.8 mph15.8 kmh 29.46 in997.6 mb 0.00 in0.0 mm 0.00 in0.0 mm 0.00 in0.0 mm
09:20 PM 62.8°F17.1°C 44.4°F6.9°C 51% 5.5 mph SSE8.9 kmh SSE 9.8 mph15.8 kmh 29.46 in997.6 mb 0.00 in0.0 mm 0.00 in0.0 mm 0.00 in0.0 mm
09:25 PM 62.6°F17.0°C 44.2°F6.8°C 51% 5.3 mph SE8.5 kmh SE 9.8 mph15.8 kmh 29.47 in998.0 mb 0.00 in0.0 mm 0.00 in0.0 mm 0.00 in0.0 mm
09:30 PM 62.4°F16.9°C 44.1°F6.7°C 51% 4.3 mph ESE6.9 kmh ESE 7.4 mph11.9 kmh 29.47 in998.0 mb 0.00 in0.0 mm 0.00 in0.0 mm 0.00 in0.0 mm
09:35 PM 62.3°F16.8°C 44.0°F6.7°C 51% 4.6 mph SE7.4 kmh SE 9.8 mph15.8 kmh 29.47 in998.0 mb 0.00 in0.0 mm 0.00 in0.0 mm 0.00 in0.0 mm
09:40 PM 62.2°F16.8°C 44.2°F6.8°C 52% 4.8 mph ESE7.7 kmh ESE 7.4 mph11.9 kmh 29.47 in998.0 mb 0.00 in0.0 mm 0.00 in0.0 mm 0.00 in0.0 mm
09:45 PM 62.1°F16.7°C 44.3°F6.8°C 52% 5.4 mph SE8.7 kmh SE 12.3 mph19.8 kmh 29.47 in998.0 mb 0.00 in0.0 mm 0.00 in0.0 mm 0.00 in0.0 mm
09:50 PM 62.0°F16.7°C 44.2°F6.8°C 52% 6.1 mph SE9.8 kmh SE 12.3 mph19.8 kmh 29.47 in998.0 mb 0.00 in0.0 mm 0.00 in0.0 mm 0.00 in0.0 mm
09:55 PM 61.8°F16.6°C 44.5°F6.9°C 53% 6.0 mph SE9.7 kmh SE 12.3 mph19.8 kmh 29.47 in998.0 mb 0.00 in0.0 mm 0.00 in0.0 mm 0.00 in0.0 mm
10:00 PM 61.6°F16.4°C 44.3°F6.8°C 53% 5.6 mph SE9.0 kmh SE 12.3 mph19.8 kmh 29.47 in998.0 mb 0.00 in0.0 mm 0.00 in0.0 mm 0.00 in0.0 mm
10:05 PM 61.4°F16.3°C 44.4°F6.9°C 54% 5.6 mph SE9.0 kmh SE 9.8 mph15.8 kmh 29.47 in998.0 mb 0.00 in0.0 mm 0.00 in0.0 mm 0.00 in0.0 mm
10:10 PM 61.3°F16.3°C 44.6°F7.0°C 54% 4.6 mph SE7.4 kmh SE 7.4 mph11.9 kmh 29.47 in998.0 mb 0.00 in0.0 mm 0.00 in0.0 mm 0.00 in0.0 mm
10:15 PM 61.1°F16.2°C 44.6°F7.0°C 54% 7.1 mph ESE11.4 kmh ESE 15.0 mph24.1 kmh 29.47 in998.0 mb 0.00 in0.0 mm 0.00 in0.0 mm 0.00 in0.0 mm
10:20 PM 60.9°F16.1°C 44.9°F7.2°C 56% 6.2 mph ESE10.0 kmh ESE 12.3 mph19.8 kmh 29.46 in997.6 mb 0.00 in0.0 mm 0.00 in0.0 mm 0.00 in0.0 mm
10:25 PM 60.7°F15.9°C 44.9°F7.2°C 56% 7.6 mph ESE12.2 kmh ESE 12.3 mph19.8 kmh 29.46 in997.6 mb 0.00 in0.0 mm 0.00 in0.0 mm 0.00 in0.0 mm
10:30 PM 60.6°F15.9°C 44.8°F7.1°C 56% 5.5 mph SE8.9 kmh SE 9.8 mph15.8 kmh 29.46 in997.6 mb 0.00 in0.0 mm 0.00 in0.0 mm 0.00 in0.0 mm
10:35 PM 60.4°F15.8°C 44.6°F7.0°C 56% 7.7 mph SSE12.4 kmh SSE 12.3 mph19.8 kmh 29.46 in997.6 mb 0.00 in0.0 mm 0.00 in0.0 mm 0.00 in0.0 mm
10:40 PM 60.4°F15.8°C 44.6°F7.0°C 56% 7.4 mph SE11.9 kmh SE 12.3 mph19.8 kmh 29.46 in997.6 mb 0.00 in0.0 mm 0.00 in0.0 mm 0.00 in0.0 mm
10:45 PM 60.3°F15.7°C 44.7°F7.1°C 56% 8.1 mph SE13.0 kmh SE 15.0 mph24.1 kmh 29.46 in997.6 mb 0.00 in0.0 mm 0.00 in0.0 mm 0.00 in0.0 mm
10:50 PM 60.3°F15.7°C 45.0°F7.2°C 57% 7.7 mph SE12.4 kmh SE 15.0 mph24.1 kmh 29.47 in998.0 mb 0.00 in0.0 mm 0.00 in0.0 mm 0.00 in0.0 mm
10:55 PM 60.2°F15.7°C 45.2°F7.3°C 58% 5.7 mph SE9.2 kmh SE 12.3 mph19.8 kmh 29.46 in997.6 mb 0.00 in0.0 mm 0.00 in0.0 mm 0.00 in0.0 mm
11:00 PM 60.1°F15.6°C 45.3°F7.4°C 58% 8.3 mph SE13.4 kmh SE 15.0 mph24.1 kmh 29.46 in997.6 mb 0.00 in0.0 mm 0.00 in0.0 mm 0.00 in0.0 mm
11:05 PM 59.9°F15.5°C 45.5°F7.5°C 59% 7.0 mph SSE11.3 kmh SSE 12.3 mph19.8 kmh 29.46 in997.6 mb 0.00 in0.0 mm 0.00 in0.0 mm 0.00 in0.0 mm
11:10 PM 59.8°F15.4°C 45.7°F7.6°C 60% 6.0 mph S9.7 kmh S 9.8 mph15.8 kmh 29.47 in998.0 mb 0.00 in0.0 mm 0.00 in0.0 mm 0.00 in0.0 mm
11:15 PM 59.6°F15.3°C 45.7°F7.6°C 60% 6.5 mph SE10.5 kmh SE 9.8 mph15.8 kmh 29.46 in997.6 mb 0.00 in0.0 mm 0.00 in0.0 mm 0.00 in0.0 mm
11:20 PM 59.5°F15.3°C 45.9°F7.7°C 61% 6.5 mph SE10.5 kmh SE 12.3 mph19.8 kmh 29.46 in997.6 mb 0.00 in0.0 mm 0.00 in0.0 mm 0.00 in0.0 mm
11:25 PM 59.3°F15.2°C 46.1°F7.8°C 62% 5.6 mph SE9.0 kmh SE 12.3 mph19.8 kmh 29.46 in997.6 mb 0.00 in0.0 mm 0.00 in0.0 mm 0.00 in0.0 mm
11:30 PM 59.1°F15.1°C 46.1°F7.8°C 62% 6.7 mph SE10.8 kmh SE 9.8 mph15.8 kmh 29.46 in997.6 mb 0.00 in0.0 mm 0.00 in0.0 mm 0.00 in0.0 mm
11:35 PM 58.9°F14.9°C 45.9°F7.7°C 62% 5.1 mph SE8.2 kmh SE 12.3 mph19.8 kmh 29.46 in997.6 mb 0.00 in0.0 mm 0.00 in0.0 mm 0.00 in0.0 mm
11:40 PM 58.6°F14.8°C 46.0°F7.8°C 63% 5.7 mph SE9.2 kmh SE 12.3 mph19.8 kmh 29.47 in998.0 mb 0.00 in0.0 mm 0.00 in0.0 mm 0.00 in0.0 mm
11:45 PM 58.5°F14.7°C 45.9°F7.7°C 63% 3.3 mph ESE5.3 kmh ESE 7.4 mph11.9 kmh 29.47 in998.0 mb 0.00 in0.0 mm 0.00 in0.0 mm 0.00 in0.0 mm
11:50 PM 58.3°F14.6°C 45.8°F7.7°C 63% 5.3 mph SSE8.5 kmh SSE 9.8 mph15.8 kmh 29.46 in997.6 mb 0.00 in0.0 mm 0.00 in0.0 mm 0.00 in0.0 mm
11:55 PM 58.3°F14.6°C 46.0°F7.8°C 64% 6.9 mph ESE11.1 kmh ESE 12.3 mph19.8 kmh 29.47 in998.0 mb 0.00 in0.0 mm 0.00 in0.0 mm 0.00 in0.0 mm